createdAt,value
2019-05-16T00:00:19.121Z,89.00
2019-05-16T00:01:48.833Z,89.00
2019-05-16T00:03:14.675Z,89.00
2019-05-16T00:04:40.626Z,89.00
2019-05-16T00:06:08.447Z,89.30
2019-05-16T00:07:33.796Z,89.50
2019-05-16T00:08:59.339Z,89.40
2019-05-16T00:10:27.912Z,89.50
2019-05-16T00:11:52.628Z,89.50
2019-05-16T00:13:18.733Z,89.80
2019-05-16T00:14:44.235Z,89.60
2019-05-16T00:16:10.340Z,89.60
2019-05-16T00:17:38.293Z,89.70
2019-05-16T00:19:03.457Z,89.70
2019-05-16T00:20:28.881Z,89.70
2019-05-16T00:21:54.868Z,89.80
2019-05-16T00:23:20.381Z,89.70
2019-05-16T00:24:48.611Z,89.70
2019-05-16T00:26:13.444Z,89.80
2019-05-16T00:27:39.538Z,89.90
2019-05-16T00:29:05.144Z,89.80
2019-05-16T00:30:31.184Z,89.90
2019-05-16T00:31:58.005Z,89.70
2019-05-16T00:33:24.176Z,90.20
2019-05-16T00:34:49.634Z,89.60
2019-05-16T00:36:15.671Z,89.60
2019-05-16T00:37:41.128Z,89.50
2019-05-16T00:39:08.493Z,89.50
2019-05-16T00:40:33.990Z,89.60
2019-05-16T00:41:59.971Z,89.20
2019-05-16T00:43:25.443Z,89.50
2019-05-16T00:44:51.495Z,89.50
2019-05-16T00:46:17.035Z,89.70
2019-05-16T00:47:43.130Z,89.90
2019-05-16T00:49:08.901Z,90.00
2019-05-16T00:50:35.013Z,90.00
2019-05-16T00:52:00.670Z,90.20
2019-05-16T00:53:28.710Z,90.30
2019-05-16T00:54:53.863Z,90.30
2019-05-16T00:56:20.675Z,90.30
2019-05-16T00:57:48.199Z,90.40
2019-05-16T00:59:15.719Z,90.40
2019-05-16T01:00:50.526Z,90.50
2019-05-16T01:02:18.184Z,90.40
2019-05-16T01:03:44.829Z,90.40
2019-05-16T01:05:11.072Z,90.80
2019-05-16T01:06:38.032Z,90.90
2019-05-16T01:08:04.351Z,90.70
2019-05-16T01:09:29.847Z,90.70
2019-05-16T01:10:55.839Z,90.60
2019-05-16T01:12:21.887Z,90.80
2019-05-16T01:13:48.721Z,90.90
2019-05-16T01:15:14.920Z,90.90
2019-05-16T01:16:40.957Z,90.90
2019-05-16T01:18:08.111Z,91.00
2019-05-16T01:19:34.249Z,91.00
2019-05-16T01:20:59.719Z,91.00
2019-05-16T01:22:25.728Z,91.10
2019-05-16T01:23:51.166Z,91.10
2019-05-16T01:25:19.312Z,91.00
2019-05-16T01:26:44.379Z,91.00
2019-05-16T01:28:10.516Z,91.00
2019-05-16T01:29:38.374Z,91.00
2019-05-16T01:31:03.748Z,91.00
2019-05-16T01:32:32.157Z,91.00
2019-05-16T01:33:58.408Z,90.90
2019-05-16T01:35:24.063Z,91.00
2019-05-16T01:36:50.123Z,90.60
2019-05-16T01:38:17.883Z,90.70
2019-05-16T01:39:43.219Z,90.60
2019-05-16T01:41:08.943Z,90.50
2019-05-16T01:42:34.971Z,90.60
2019-05-16T01:44:00.400Z,90.80
2019-05-16T01:45:27.762Z,90.40
2019-05-16T01:46:53.433Z,90.40
2019-05-16T01:48:19.551Z,90.40
2019-05-16T01:49:45.088Z,90.30
2019-05-16T01:51:11.126Z,90.30
2019-05-16T01:52:38.394Z,90.20
2019-05-16T01:54:04.315Z,90.20
2019-05-16T01:55:29.783Z,90.00
2019-05-16T01:56:55.753Z,89.40
2019-05-16T01:58:21.163Z,89.40
2019-05-16T01:59:48.600Z,89.20
2019-05-16T02:01:15.850Z,89.20
2019-05-16T02:02:42.139Z,89.40
2019-05-16T02:04:11.904Z,89.40
2019-05-16T02:05:35.455Z,89.40
2019-05-16T02:07:00.894Z,89.40
2019-05-16T02:08:28.683Z,89.30
2019-05-16T02:09:54.038Z,89.20
2019-05-16T02:11:20.110Z,88.90
2019-05-16T02:12:45.520Z,89.00
2019-05-16T02:14:11.699Z,89.00
2019-05-16T02:15:38.372Z,88.90
2019-05-16T02:17:04.706Z,88.70
2019-05-16T02:18:30.239Z,88.60
2019-05-16T02:19:57.779Z,88.50
2019-05-16T02:21:23.480Z,88.50
2019-05-16T02:22:49.558Z,88.50
2019-05-16T02:24:15.123Z,88.60
2019-05-16T02:25:41.143Z,88.60
2019-05-16T02:27:09.370Z,88.40
2019-05-16T02:28:40.859Z,88.30
2019-05-16T02:30:05.250Z,88.20
2019-05-16T02:31:33.547Z,87.90
2019-05-16T02:33:01.120Z,87.90
2019-05-16T02:34:26.635Z,87.90
2019-05-16T02:35:55.778Z,87.60
2019-05-16T02:37:28.236Z,87.40
2019-05-16T02:38:46.811Z,87.50
2019-05-16T02:40:13.428Z,87.10
2019-05-16T02:41:42.653Z,87.20
2019-05-16T02:43:06.761Z,87.40
2019-05-16T02:44:32.361Z,87.30
2019-05-16T02:46:01.198Z,87.20
2019-05-16T02:47:25.575Z,87.20
2019-05-16T02:48:52.008Z,87.10
2019-05-16T02:50:17.943Z,87.00
2019-05-16T02:51:43.921Z,87.00
2019-05-16T02:53:12.592Z,86.70
2019-05-16T02:54:37.141Z,86.60
2019-05-16T02:56:02.616Z,86.40
2019-05-16T02:57:31.319Z,86.20
2019-05-16T02:58:55.828Z,86.10
2019-05-16T03:00:36.036Z,85.90
2019-05-16T03:02:01.600Z,85.80
2019-05-16T03:03:27.784Z,86.10
2019-05-16T03:04:53.389Z,86.00
2019-05-16T03:06:21.236Z,85.80
2019-05-16T03:07:47.788Z,86.00
2019-05-16T03:09:14.735Z,85.90
2019-05-16T03:10:41.259Z,85.80
2019-05-16T03:12:10.567Z,85.90
2019-05-16T03:13:35.916Z,85.70
2019-05-16T03:15:03.172Z,85.60
2019-05-16T03:16:31.874Z,85.90
2019-05-16T03:18:04.313Z,85.80
2019-05-16T03:19:31.175Z,85.80
2019-05-16T03:21:00.550Z,85.80
2019-05-16T03:22:31.566Z,85.80
2019-05-16T03:23:56.976Z,85.80
2019-05-16T03:25:22.532Z,85.90
2019-05-16T03:26:51.271Z,85.80
2019-05-16T03:28:15.674Z,85.80
2019-05-16T03:29:42.004Z,85.70
2019-05-16T03:31:07.587Z,85.90
2019-05-16T03:32:34.647Z,86.00
2019-05-16T03:34:07.555Z,86.40
2019-05-16T03:35:33.958Z,86.40
2019-05-16T03:37:03.990Z,86.50
2019-05-16T03:38:26.899Z,86.70
2019-05-16T03:39:52.383Z,86.50
2019-05-16T03:41:21.328Z,86.40
2019-05-16T03:42:45.859Z,86.10
2019-05-16T03:44:12.040Z,86.10
2019-05-16T03:45:41.406Z,85.60
2019-05-16T03:47:05.248Z,85.50
2019-05-16T03:48:31.574Z,85.20
2019-05-16T03:50:00.317Z,85.00
2019-05-16T03:51:37.646Z,85.10
2019-05-16T03:53:02.854Z,85.40
2019-05-16T03:54:31.150Z,85.60
2019-05-16T03:55:55.941Z,85.70
2019-05-16T03:57:21.474Z,85.80
2019-05-16T03:58:50.760Z,85.70
2019-05-16T04:00:14.808Z,85.80
2019-05-16T04:01:41.189Z,85.90
2019-05-16T04:03:11.622Z,85.90
2019-05-16T04:04:37.305Z,86.00
2019-05-16T04:06:02.808Z,86.10
2019-05-16T04:07:31.702Z,86.10
2019-05-16T04:08:56.664Z,86.20
2019-05-16T04:10:22.679Z,86.20
2019-05-16T04:11:50.798Z,86.30
2019-05-16T04:13:15.835Z,86.40
2019-05-16T04:14:41.350Z,86.40
2019-05-16T04:16:07.431Z,86.60
2019-05-16T04:17:32.887Z,86.60
2019-05-16T04:19:01.663Z,86.40
2019-05-16T04:20:25.979Z,86.50
2019-05-16T04:21:51.951Z,86.70
2019-05-16T04:23:20.365Z,86.80
2019-05-16T04:24:45.230Z,86.80
2019-05-16T04:26:11.381Z,86.90
2019-05-16T04:27:37.563Z,86.70
2019-05-16T04:29:03.074Z,87.00
2019-05-16T04:30:31.247Z,87.00
2019-05-16T04:31:56.311Z,87.00
2019-05-16T04:33:22.827Z,87.00
2019-05-16T04:34:51.046Z,86.90
2019-05-16T04:36:16.001Z,86.90
2019-05-16T04:37:42.523Z,87.00
2019-05-16T04:39:11.951Z,87.10
2019-05-16T04:40:38.421Z,87.20
2019-05-16T04:42:04.226Z,87.10
2019-05-16T04:43:31.627Z,87.00
2019-05-16T04:44:57.283Z,87.00
2019-05-16T04:46:22.771Z,87.00
2019-05-16T04:47:51.414Z,87.10
2019-05-16T04:49:17.168Z,87.20
2019-05-16T04:50:43.253Z,87.40
2019-05-16T04:52:11.249Z,87.50
2019-05-16T04:53:36.357Z,87.40
2019-05-16T04:55:01.868Z,87.50
2019-05-16T04:56:30.668Z,88.40
2019-05-16T04:57:55.044Z,87.70
2019-05-16T04:59:21.159Z,87.90
2019-05-16T05:00:47.094Z,87.80
2019-05-16T05:02:13.157Z,87.90
2019-05-16T05:03:40.935Z,87.90
2019-05-16T05:05:06.730Z,87.90
2019-05-16T05:06:32.144Z,88.30
2019-05-16T05:08:01.295Z,88.10
2019-05-16T05:09:25.332Z,88.20
2019-05-16T05:10:51.947Z,88.40
2019-05-16T05:12:20.559Z,88.50
2019-05-16T05:13:45.544Z,88.50
2019-05-16T05:15:11.851Z,88.70
2019-05-16T05:16:37.951Z,88.80
2019-05-16T05:18:03.432Z,88.80
2019-05-16T05:19:30.698Z,88.70
2019-05-16T05:20:56.356Z,88.70
2019-05-16T05:22:22.391Z,88.60
2019-05-16T05:23:47.831Z,88.40
2019-05-16T05:25:14.028Z,88.30
2019-05-16T05:26:41.436Z,88.40
2019-05-16T05:28:07.212Z,88.50
2019-05-16T05:29:32.702Z,88.50
2019-05-16T05:30:59.786Z,88.40
2019-05-16T05:32:25.577Z,88.30
2019-05-16T05:33:51.625Z,88.30
2019-05-16T05:35:20.307Z,88.30
2019-05-16T05:36:45.035Z,88.30
2019-05-16T05:38:10.622Z,88.40
2019-05-16T05:39:36.748Z,88.40
2019-05-16T05:41:02.258Z,88.40
2019-05-16T05:42:30.503Z,88.40
2019-05-16T05:43:55.408Z,88.20
2019-05-16T05:45:21.590Z,87.90
2019-05-16T05:46:47.112Z,87.80
2019-05-16T05:48:13.081Z,87.50
2019-05-16T05:49:40.450Z,87.40
2019-05-16T05:51:06.314Z,87.40
2019-05-16T05:52:31.735Z,87.40
2019-05-16T05:54:00.017Z,87.50
2019-05-16T05:55:24.901Z,87.60
2019-05-16T05:56:50.988Z,87.60
2019-05-16T05:58:16.457Z,87.60
2019-05-16T05:59:42.449Z,87.60
2019-05-16T06:01:10.858Z,87.40
2019-05-16T06:02:35.668Z,87.30
2019-05-16T06:04:01.131Z,87.40
2019-05-16T06:05:27.214Z,87.40
2019-05-16T06:06:52.665Z,87.50
2019-05-16T06:08:20.118Z,87.60
2019-05-16T06:09:53.461Z,88.20
2019-05-16T06:11:13.855Z,87.50
2019-05-16T06:12:40.818Z,87.50
2019-05-16T06:14:07.073Z,87.40
2019-05-16T06:15:32.631Z,87.30
2019-05-16T06:17:00.404Z,87.30
2019-05-16T06:18:25.815Z,87.30
2019-05-16T06:19:51.902Z,87.40
2019-05-16T06:21:20.070Z,87.50
2019-05-16T06:22:45.090Z,87.60
2019-05-16T06:24:10.867Z,87.60
2019-05-16T06:25:37.236Z,87.10
2019-05-16T06:27:02.708Z,87.00
2019-05-16T06:28:30.767Z,87.00
2019-05-16T06:29:57.469Z,86.90
2019-05-16T06:31:23.711Z,86.90
2019-05-16T06:32:50.169Z,86.80
2019-05-16T06:34:16.296Z,86.70
2019-05-16T06:35:41.774Z,86.50
2019-05-16T06:37:09.763Z,86.10
2019-05-16T06:38:34.907Z,86.50
2019-05-16T06:40:00.921Z,85.60
2019-05-16T06:41:26.483Z,85.40
2019-05-16T06:42:52.499Z,85.30
2019-05-16T06:44:20.119Z,85.20
2019-05-16T06:45:45.610Z,84.60
2019-05-16T06:47:19.629Z,84.60
2019-05-16T06:48:40.164Z,83.60
2019-05-16T06:50:06.464Z,83.60
2019-05-16T06:51:32.512Z,83.40
2019-05-16T06:52:57.985Z,83.30
2019-05-16T06:54:24.376Z,83.40
2019-05-16T06:55:50.034Z,83.80
2019-05-16T06:57:16.190Z,83.70
2019-05-16T06:58:47.567Z,83.90
2019-05-16T07:00:10.932Z,84.00
2019-05-16T07:01:36.799Z,83.90
2019-05-16T07:03:02.842Z,83.50
2019-05-16T07:04:30.335Z,83.30
2019-05-16T07:05:55.934Z,82.80
2019-05-16T07:07:21.424Z,82.80
2019-05-16T07:08:47.456Z,82.80
2019-05-16T07:10:13.618Z,82.70
2019-05-16T07:11:39.868Z,82.60
2019-05-16T07:13:05.770Z,82.60
2019-05-16T07:14:31.767Z,82.70
2019-05-16T07:15:57.236Z,82.80
2019-05-16T07:17:24.350Z,82.80
2019-05-16T07:18:50.638Z,82.90
2019-05-16T07:20:17.315Z,82.70
2019-05-16T07:21:42.821Z,82.60
2019-05-16T07:23:10.069Z,82.60
2019-05-16T07:24:35.776Z,82.60
2019-05-16T07:26:01.836Z,82.30
2019-05-16T07:27:27.347Z,82.50
2019-05-16T07:28:53.436Z,82.80
2019-05-16T07:30:19.919Z,82.90
2019-05-16T07:31:46.166Z,83.00
2019-05-16T07:33:11.869Z,82.90
2019-05-16T07:34:40.207Z,82.90
2019-05-16T07:36:05.094Z,83.00
2019-05-16T07:37:31.569Z,82.90
2019-05-16T07:38:59.639Z,82.80
2019-05-16T07:40:26.925Z,82.80
2019-05-16T07:41:51.928Z,82.70
2019-05-16T07:43:20.166Z,82.60
2019-05-16T07:44:45.180Z,82.60
2019-05-16T07:46:11.276Z,82.70
2019-05-16T07:47:36.768Z,82.60
2019-05-16T07:49:02.916Z,81.70
2019-05-16T07:50:30.080Z,82.10
2019-05-16T07:51:55.983Z,81.90
2019-05-16T07:53:21.771Z,81.80
2019-05-16T07:54:50.334Z,81.70
2019-05-16T07:56:15.141Z,81.60
2019-05-16T07:57:41.314Z,81.60
2019-05-16T07:59:06.863Z,81.60
2019-05-16T08:00:47.365Z,81.50
2019-05-16T08:02:00.582Z,81.50
2019-05-16T08:03:26.866Z,81.40
2019-05-16T08:04:52.326Z,81.30
2019-05-16T08:06:20.086Z,81.10
2019-05-16T08:07:45.685Z,81.00
2019-05-16T08:09:12.413Z,81.00
2019-05-16T08:10:45.623Z,81.00
2019-05-16T08:12:06.447Z,80.80
2019-05-16T08:13:32.091Z,80.80
2019-05-16T08:15:00.553Z,80.80
2019-05-16T08:16:25.299Z,80.70
2019-05-16T08:17:51.424Z,80.50
2019-05-16T08:19:16.888Z,80.40
2019-05-16T08:20:42.889Z,79.80
2019-05-16T08:22:10.825Z,79.70
2019-05-16T08:23:36.081Z,79.50
2019-05-16T08:25:01.624Z,79.20
2019-05-16T08:26:31.500Z,79.10
2019-05-16T08:27:54.759Z,79.10
2019-05-16T08:29:22.035Z,79.20
2019-05-16T08:30:47.779Z,79.10
2019-05-16T08:32:13.915Z,79.10
2019-05-16T08:33:41.566Z,79.00
2019-05-16T08:35:07.467Z,78.80
2019-05-16T08:36:32.952Z,78.50
2019-05-16T08:38:01.125Z,78.30
2019-05-16T08:39:26.279Z,77.80
2019-05-16T08:41:08.125Z,77.00
2019-05-16T08:42:20.828Z,77.50
2019-05-16T08:43:47.089Z,77.50
2019-05-16T08:45:14.276Z,77.30
2019-05-16T08:46:42.356Z,77.30
2019-05-16T08:48:07.691Z,77.10
2019-05-16T08:49:33.804Z,77.00
2019-05-16T08:51:02.866Z,76.90
2019-05-16T08:52:27.236Z,76.30
2019-05-16T08:53:52.841Z,75.90
2019-05-16T08:55:21.768Z,75.60
2019-05-16T08:56:46.290Z,75.60
2019-05-16T08:58:13.534Z,75.50
2019-05-16T08:59:41.061Z,75.50
2019-05-16T09:01:07.113Z,75.20
2019-05-16T09:02:37.189Z,74.60
2019-05-16T09:04:01.858Z,74.60
2019-05-16T09:05:31.309Z,74.00
2019-05-16T09:06:55.329Z,74.10
2019-05-16T09:08:20.777Z,73.80
2019-05-16T09:09:51.156Z,73.70
2019-05-16T09:11:29.276Z,73.10
2019-05-16T09:12:41.656Z,73.30
2019-05-16T09:14:08.084Z,73.10
2019-05-16T09:15:34.199Z,72.60
2019-05-16T09:16:59.981Z,73.30
2019-05-16T09:18:28.954Z,73.10
2019-05-16T09:19:53.923Z,72.50
2019-05-16T09:21:19.991Z,72.50
2019-05-16T09:22:48.002Z,71.90
2019-05-16T09:24:13.182Z,71.70
2019-05-16T09:25:38.704Z,71.50
2019-05-16T09:27:10.839Z,71.60
2019-05-16T09:28:32.043Z,71.60
2019-05-16T09:29:58.074Z,71.50
2019-05-16T09:31:23.544Z,71.40
2019-05-16T09:32:49.718Z,71.30
2019-05-16T09:34:17.563Z,71.20
2019-05-16T09:35:43.087Z,71.00
2019-05-16T09:37:08.753Z,71.30
2019-05-16T09:38:38.042Z,71.00
2019-05-16T09:40:01.957Z,70.80
2019-05-16T09:41:53.395Z,70.90
2019-05-16T09:42:56.844Z,70.80
2019-05-16T09:44:22.795Z,72.00
2019-05-16T09:45:48.303Z,72.30
2019-05-16T09:47:17.350Z,72.60
2019-05-16T09:48:41.664Z,72.60
2019-05-16T09:50:09.006Z,72.90
2019-05-16T09:51:37.419Z,73.00
2019-05-16T09:53:02.427Z,73.30
2019-05-16T09:54:28.054Z,73.40
2019-05-16T09:55:54.220Z,73.10
2019-05-16T09:57:19.880Z,72.40
2019-05-16T09:58:46.742Z,72.90
2019-05-16T10:00:17.838Z,72.90
2019-05-16T10:01:44.254Z,73.30
2019-05-16T10:03:09.939Z,73.20
2019-05-16T10:04:36.802Z,73.40
2019-05-16T10:06:02.526Z,73.60
2019-05-16T10:07:28.723Z,73.60
2019-05-16T10:08:54.215Z,73.00
2019-05-16T10:10:20.771Z,72.50
2019-05-16T10:11:49.321Z,72.90
2019-05-16T10:13:13.944Z,72.60
2019-05-16T10:14:39.473Z,74.60
2019-05-16T10:16:07.219Z,76.00
2019-05-16T10:17:32.919Z,77.10
2019-05-16T10:18:59.034Z,78.40
2019-05-16T10:20:27.191Z,77.90
2019-05-16T10:21:52.397Z,77.90
2019-05-16T10:23:18.228Z,78.50
2019-05-16T10:24:46.629Z,78.60
2019-05-16T10:26:11.647Z,78.00
2019-05-16T10:27:37.911Z,78.30
2019-05-16T10:29:03.559Z,79.80
2019-05-16T10:30:30.327Z,78.70
2019-05-16T10:31:56.868Z,78.80
2019-05-16T10:33:23.047Z,77.90
2019-05-16T10:34:48.694Z,78.20
2019-05-16T10:36:17.154Z,80.20
2019-05-16T10:37:42.035Z,79.10
2019-05-16T10:39:08.910Z,78.60
2019-05-16T10:40:36.698Z,77.90
2019-05-16T10:42:02.080Z,77.90
2019-05-16T10:43:27.563Z,78.40
2019-05-16T10:44:53.623Z,77.90
2019-05-16T10:46:19.135Z,78.60
2019-05-16T10:47:47.842Z,78.70
2019-05-16T10:49:12.503Z,78.50
2019-05-16T10:50:38.505Z,79.10
2019-05-16T10:52:04.051Z,79.80
2019-05-16T10:53:58.033Z,79.20
2019-05-16T10:55:01.403Z,80.00
2019-05-16T10:56:24.840Z,78.90
2019-05-16T10:57:50.475Z,78.60
2019-05-16T10:59:51.170Z,81.70
2019-05-16T11:01:07.764Z,81.50
2019-05-16T11:02:11.709Z,81.30
2019-05-16T11:03:37.231Z,82.00
2019-05-16T11:05:22.436Z,82.70
2019-05-16T11:06:30.716Z,82.30
2019-05-16T11:07:57.484Z,82.00
2019-05-16T11:09:23.391Z,82.10
2019-05-16T11:10:49.473Z,82.60
2019-05-16T11:12:17.360Z,82.50
2019-05-16T11:13:42.612Z,82.60
2019-05-16T11:15:11.333Z,82.60
2019-05-16T11:16:36.821Z,83.10
2019-05-16T11:18:02.374Z,82.50
2019-05-16T11:19:28.535Z,82.80
2019-05-16T11:20:54.018Z,83.10
2019-05-16T11:22:20.067Z,83.10
2019-05-16T11:23:47.134Z,83.50
2019-05-16T11:25:24.778Z,83.80
2019-05-16T11:26:40.620Z,83.40
2019-05-16T11:28:07.260Z,83.10
2019-05-16T11:29:33.111Z,82.70
2019-05-16T11:31:03.336Z,82.50
2019-05-16T11:32:26.959Z,82.60
2019-05-16T11:33:53.289Z,83.00
2019-05-16T11:35:19.373Z,83.50
2019-05-16T11:36:47.564Z,83.30
2019-05-16T11:38:12.445Z,83.30
2019-05-16T11:39:38.538Z,82.90
2019-05-16T11:41:04.167Z,83.10
2019-05-16T11:42:30.233Z,83.80
2019-05-16T11:43:56.854Z,83.30
2019-05-16T11:45:24.023Z,82.50
2019-05-16T11:46:49.510Z,81.80
2019-05-16T11:48:17.189Z,81.90
2019-05-16T11:49:42.743Z,82.50
2019-05-16T11:51:09.225Z,82.40
2019-05-16T11:52:34.760Z,82.20
2019-05-16T11:54:00.827Z,82.50
2019-05-16T11:55:32.394Z,82.80
2019-05-16T11:56:53.893Z,82.80
2019-05-16T11:58:19.400Z,82.80
2019-05-16T11:59:47.134Z,81.50
2019-05-16T12:01:12.596Z,80.90
2019-05-16T12:02:42.329Z,80.80
2019-05-16T12:04:07.974Z,81.10
2019-05-16T12:05:33.698Z,80.80
2019-05-16T12:06:59.182Z,81.40
2019-05-16T12:08:26.514Z,81.50
2019-05-16T12:09:55.552Z,81.70
2019-05-16T12:11:19.806Z,80.00
2019-05-16T12:12:45.423Z,82.00
2019-05-16T12:14:11.453Z,82.50
2019-05-16T12:15:37.080Z,82.70
2019-05-16T12:17:03.121Z,81.40
2019-05-16T12:18:28.622Z,81.80
2019-05-16T12:19:57.462Z,82.00
2019-05-16T12:21:21.874Z,80.40
2019-05-16T12:22:47.917Z,79.90
2019-05-16T12:24:29.100Z,80.10
2019-05-16T12:25:41.084Z,79.90
2019-05-16T12:27:08.365Z,79.50
2019-05-16T12:28:34.375Z,79.60
2019-05-16T12:29:59.885Z,79.50
2019-05-16T12:31:25.904Z,80.20
2019-05-16T12:32:51.470Z,81.80
2019-05-16T12:34:17.556Z,82.70
2019-05-16T12:35:43.158Z,83.40
2019-05-16T12:37:09.368Z,83.90
2019-05-16T12:38:37.646Z,84.40
2019-05-16T12:40:02.623Z,84.60
2019-05-16T12:41:28.831Z,84.50
2019-05-16T12:42:57.158Z,85.30
2019-05-16T12:44:22.059Z,85.70
2019-05-16T12:45:48.047Z,87.10
2019-05-16T12:47:13.491Z,86.00
2019-05-16T12:48:39.525Z,85.60
2019-05-16T12:50:07.258Z,85.90
2019-05-16T12:51:33.119Z,85.80
2019-05-16T12:52:58.829Z,85.80
2019-05-16T12:54:27.453Z,84.30
2019-05-16T12:55:51.952Z,84.30
2019-05-16T12:57:18.321Z,85.30
2019-05-16T12:58:47.273Z,85.60
2019-05-16T13:00:16.326Z,85.20
2019-05-16T13:01:43.831Z,85.60
2019-05-16T13:03:09.940Z,85.90
2019-05-16T13:04:37.196Z,84.90
2019-05-16T13:06:03.265Z,85.30
2019-05-16T13:07:32.821Z,84.80
2019-05-16T13:08:58.852Z,84.70
2019-05-16T13:10:26.792Z,84.50
2019-05-16T13:11:52.019Z,84.40
2019-05-16T13:13:17.938Z,84.70
2019-05-16T13:14:44.128Z,85.30
2019-05-16T13:16:09.552Z,85.60
2019-05-16T13:17:37.274Z,86.10
2019-05-16T13:19:03.001Z,86.40
2019-05-16T13:20:29.071Z,86.40
2019-05-16T13:21:54.690Z,86.60
2019-05-16T13:23:20.779Z,86.70
2019-05-16T13:24:48.292Z,86.60
2019-05-16T13:26:14.556Z,86.70
2019-05-16T13:27:40.137Z,87.10
2019-05-16T13:29:07.300Z,87.40
2019-05-16T13:30:32.969Z,87.60
2019-05-16T13:31:59.060Z,87.90
2019-05-16T13:33:29.589Z,88.00
2019-05-16T13:34:58.694Z,88.20
2019-05-16T13:36:22.813Z,89.20
2019-05-16T13:37:48.947Z,88.50
2019-05-16T13:39:16.809Z,88.60
2019-05-16T13:40:42.519Z,88.50
2019-05-16T13:42:08.390Z,88.50
2019-05-16T13:43:37.343Z,88.80
2019-05-16T13:45:01.782Z,88.80
2019-05-16T13:46:41.279Z,89.00
2019-05-16T13:48:02.471Z,89.20
2019-05-16T13:49:28.653Z,89.40
2019-05-16T13:51:10.556Z,89.60
2019-05-16T13:52:28.289Z,89.70
2019-05-16T13:53:52.845Z,89.70
2019-05-16T13:55:20.287Z,89.50
2019-05-16T13:56:50.321Z,89.70
2019-05-16T13:58:17.877Z,89.60
2019-05-16T13:59:43.546Z,89.70
2019-05-16T14:01:09.788Z,89.80
2019-05-16T14:02:37.462Z,89.90
2019-05-16T14:04:02.829Z,90.00
2019-05-16T14:05:28.280Z,90.20
2019-05-16T14:06:58.110Z,90.10
2019-05-16T14:08:21.491Z,90.20
2019-05-16T14:09:47.552Z,90.10
2019-05-16T14:11:13.036Z,90.20
2019-05-16T14:12:39.369Z,90.20
2019-05-16T14:14:05.136Z,90.10
2019-05-16T14:15:31.727Z,90.10
2019-05-16T14:16:57.182Z,90.20
2019-05-16T14:18:23.205Z,90.20
2019-05-16T14:19:48.690Z,90.20
2019-05-16T14:21:17.904Z,90.10
2019-05-16T14:22:41.945Z,90.10
2019-05-16T14:24:08.741Z,90.10
2019-05-16T14:25:34.463Z,90.10
2019-05-16T14:27:00.494Z,90.00
2019-05-16T14:28:25.926Z,90.10
2019-05-16T14:29:52.071Z,90.10
2019-05-16T14:31:17.609Z,90.10
2019-05-16T14:32:44.326Z,90.20
2019-05-16T14:34:10.175Z,90.50
2019-05-16T14:35:37.654Z,90.40
2019-05-16T14:37:03.335Z,90.40
2019-05-16T14:38:29.454Z,90.50
2019-05-16T14:39:57.822Z,90.70
2019-05-16T14:41:22.880Z,90.70
2019-05-16T14:42:48.319Z,90.50
2019-05-16T14:44:14.311Z,90.40
2019-05-16T14:45:39.880Z,90.40
2019-05-16T14:47:06.961Z,90.60
2019-05-16T14:48:32.692Z,90.50
2019-05-16T14:49:58.725Z,90.70
2019-05-16T14:51:27.262Z,90.60
2019-05-16T14:52:51.895Z,90.60
2019-05-16T14:54:17.358Z,90.50
2019-05-16T14:55:43.383Z,90.70
2019-05-16T14:57:08.960Z,90.70
2019-05-16T14:58:37.939Z,90.60
2019-05-16T15:00:02.340Z,90.50
2019-05-16T15:01:28.582Z,90.40
2019-05-16T15:02:56.526Z,90.40
2019-05-16T15:04:21.768Z,90.40
2019-05-16T15:05:47.982Z,90.50
2019-05-16T15:07:19.327Z,90.60
2019-05-16T15:08:42.632Z,90.70
2019-05-16T15:10:08.863Z,90.70
2019-05-16T15:11:34.521Z,90.70
2019-05-16T15:13:00.554Z,90.80
2019-05-16T15:14:28.133Z,90.70
2019-05-16T15:15:54.048Z,90.60
2019-05-16T15:17:19.528Z,90.90
2019-05-16T15:18:47.475Z,91.00
2019-05-16T15:20:12.783Z,91.10
2019-05-16T15:21:38.927Z,91.00
2019-05-16T15:23:07.709Z,91.00
2019-05-16T15:24:39.769Z,91.20
2019-05-16T15:26:08.984Z,91.20
2019-05-16T15:27:37.167Z,91.20
2019-05-16T15:29:03.001Z,91.30
2019-05-16T15:30:29.039Z,91.20
2019-05-16T15:31:54.575Z,91.10
2019-05-16T15:33:23.522Z,91.10
2019-05-16T15:34:57.262Z,91.00
2019-05-16T15:36:26.919Z,91.20
2019-05-16T15:37:51.847Z,91.30
2019-05-16T15:39:21.055Z,91.50
2019-05-16T15:41:08.049Z,91.50
2019-05-16T15:43:07.827Z,91.40
2019-05-16T15:44:31.427Z,91.50
2019-05-16T15:46:00.998Z,91.60
2019-05-16T15:47:27.833Z,91.60
2019-05-16T15:48:53.118Z,91.50
2019-05-16T15:50:19.634Z,91.80
2019-05-16T15:51:45.380Z,92.00
2019-05-16T15:53:17.517Z,92.00
2019-05-16T15:55:02.092Z,92.20
2019-05-16T15:56:28.480Z,92.10
2019-05-16T15:57:53.957Z,92.30
2019-05-16T15:59:20.055Z,92.10
2019-05-16T16:00:48.344Z,92.10
2019-05-16T16:02:17.439Z,92.10
2019-05-16T16:03:41.830Z,92.20
2019-05-16T16:05:08.443Z,92.20
2019-05-16T16:06:33.852Z,92.10
2019-05-16T16:07:59.909Z,92.30
2019-05-16T16:09:27.009Z,92.20
2019-05-16T16:10:53.175Z,92.40
2019-05-16T16:12:18.652Z,92.50
2019-05-16T16:13:44.732Z,92.50
2019-05-16T16:15:10.368Z,92.50
2019-05-16T16:16:36.382Z,92.50
2019-05-16T16:18:01.850Z,92.40
2019-05-16T16:19:27.862Z,92.40
2019-05-16T16:20:53.423Z,92.40
2019-05-16T16:22:19.672Z,92.50
2019-05-16T16:23:47.375Z,92.60
2019-05-16T16:25:12.979Z,92.70
2019-05-16T16:26:38.410Z,92.80
2019-05-16T16:28:07.141Z,92.90
2019-05-16T16:29:33.235Z,92.90
2019-05-16T16:30:59.413Z,93.00
2019-05-16T16:32:26.886Z,93.20
2019-05-16T16:33:52.635Z,93.20
2019-05-16T16:35:18.313Z,93.20
2019-05-16T16:36:44.321Z,93.20
2019-05-16T16:38:09.814Z,93.30
2019-05-16T16:39:37.782Z,93.40
2019-05-16T16:41:02.969Z,93.50
2019-05-16T16:42:29.323Z,93.50
2019-05-16T16:43:56.936Z,93.60
2019-05-16T16:45:22.819Z,93.60
2019-05-16T16:46:48.468Z,93.80
2019-05-16T16:48:16.906Z,93.80
2019-05-16T16:49:41.672Z,94.00
2019-05-16T16:51:07.893Z,94.10
2019-05-16T16:52:33.396Z,94.10
2019-05-16T16:53:59.577Z,94.20
2019-05-16T16:55:27.387Z,94.10
2019-05-16T16:56:52.952Z,94.10
2019-05-16T16:58:18.564Z,94.20
2019-05-16T16:59:47.439Z,94.30
2019-05-16T17:01:11.909Z,94.40
2019-05-16T17:02:37.933Z,94.40
2019-05-16T17:04:03.456Z,94.40
2019-05-16T17:05:29.459Z,94.50
2019-05-16T17:06:58.161Z,94.60
2019-05-16T17:08:24.192Z,94.60
2019-05-16T17:09:49.847Z,94.60
2019-05-16T17:11:16.002Z,94.60
2019-05-16T17:12:42.564Z,94.90
2019-05-16T17:14:08.928Z,95.00
2019-05-16T17:15:36.499Z,95.10
2019-05-16T17:17:02.158Z,95.20
2019-05-16T17:18:27.778Z,95.40
2019-05-16T17:19:53.847Z,95.40
2019-05-16T17:21:19.333Z,95.40
2019-05-16T17:22:46.756Z,95.40
2019-05-16T17:24:13.494Z,95.40
2019-05-16T17:25:39.483Z,95.60
2019-05-16T17:27:07.754Z,95.50
2019-05-16T17:28:34.168Z,95.60
2019-05-16T17:30:00.836Z,95.30
2019-05-16T17:31:27.143Z,95.20
2019-05-16T17:32:52.605Z,95.40
2019-05-16T17:34:18.680Z,95.30
2019-05-16T17:35:48.291Z,95.30
2019-05-16T17:37:12.361Z,95.20
2019-05-16T17:38:37.819Z,95.10
2019-05-16T17:40:03.991Z,94.80
2019-05-16T17:41:29.434Z,94.70
2019-05-16T17:42:56.858Z,94.80
2019-05-16T17:44:22.460Z,94.80
2019-05-16T17:45:48.545Z,94.70
2019-05-16T17:47:14.300Z,94.70
2019-05-16T17:48:40.360Z,94.70
2019-05-16T17:50:07.847Z,94.70
2019-05-16T17:51:33.893Z,94.60
2019-05-16T17:52:59.472Z,94.50
2019-05-16T17:54:26.739Z,94.20
2019-05-16T17:55:52.464Z,93.70
2019-05-16T17:57:18.692Z,93.50
2019-05-16T17:58:44.298Z,93.40
2019-05-16T18:00:13.073Z,93.50
2019-05-16T18:01:38.430Z,93.50
2019-05-16T18:03:06.428Z,93.50
2019-05-16T18:04:31.684Z,93.50
2019-05-16T18:05:57.779Z,93.60
2019-05-16T18:07:23.248Z,93.60
2019-05-16T18:08:49.251Z,93.60
2019-05-16T18:10:16.227Z,93.60
2019-05-16T18:11:42.258Z,93.60
2019-05-16T18:13:08.084Z,93.50
2019-05-16T18:14:34.180Z,93.20
2019-05-16T18:15:59.755Z,93.00
2019-05-16T18:17:26.824Z,93.00
2019-05-16T18:18:57.341Z,93.10
2019-05-16T18:20:23.258Z,92.60
2019-05-16T18:21:48.747Z,92.50
2019-05-16T18:23:17.253Z,92.40
2019-05-16T18:24:42.736Z,92.10
2019-05-16T18:26:08.932Z,92.10
2019-05-16T18:27:34.394Z,92.20
2019-05-16T18:29:00.396Z,92.10
2019-05-16T18:30:27.086Z,92.00
2019-05-16T18:31:53.303Z,91.90
2019-05-16T18:33:18.767Z,91.90
2019-05-16T18:34:44.912Z,91.90